หน้าหลัก
METAR-TAF:

METAR-TAF

ท่าอากาศยาน :

คาลมาร์, สวีเดน

ละติจูด: 56-44N, ลองจิจูด: 016-18E, ความสูง: 16 ม.

การสังเกตสภาพอากาศปัจจุบัน

รายงานได้ทำขึ้นเมื่อ 19 นาทีที่แล้ว ณ เวลา 23:50 UTC
ลม 2 นอตจากทิศทางซึ่งแปรผันได้
อุณหภูมิ 13°C
ความชื้น 100%
ความกดอากาศ 1012 hPa
ทัศนวิสัย 10 กม. หรือมากกว่า

METAR: ESMQ 122350Z AUTO VRB02KT 9999 NCD 13/13 Q1012

เวลา: 02:09 (00:09 UTC)

การพยากรณ์

รายงานได้ทำขึ้นเมื่อ 11 ชั่วโมงและ 42 นาทีที่แล้ว ณ เวลา 12:27 UTC
การพยากรณ์มีผลตั้งแต่วันที่ 12 ณ เวลา 12 UTC จนถึงวันที่ 12 ณ เวลา 14 UTC
ลม 12 นอตจากใต้
ทัศนวิสัย 10 กม. หรือมากกว่า
มีเมฆกระจายเป็นบางส่วนที่ความสูง 4500 ฟุต

TAF: ESMQ 121227Z 1212/1214 18012KT 9999 SCT045

สังเกตการณ์สภาพอากาศและพยากรณ์อากาศของสนามบินมากกว่า 4000 แห่ง (รายงาน METAR และ TAF).

สถานีที่ดูได้จะแสดงไว้ด้วยจุดสีเหลืองและสีแดงบนแผนที่.

เลื่อนเมาส์ไปเหนือจุดเพื่อดูชื่อสถานี.

แล้วคลิกเพื่อดูสังเกตการณ์และการพยากรณ์สภาพอากาศ.

ในการเปลี่ยนแผนที่: คลิกที่ปุ่มสีเขียวที่มีกากบาทสีดำเพื่อซูมเข้า; ที่ปุ่มสีเขียวที่มีขีดเพื่อซูมออก; หรือที่ลูกศรสีเขียวเพื่อไปยังแผนที่ที่อยู่ติดกัน.


METAR-TAF: